Time;durP1;ratioP1;P1;durP2;ratioP2;P2;SDS_P1;SDS_P2;PMS_P1;PMS_P2;Temp;Humidity;BMP_temperature;BMP_pressure;BME280_temperature;BME280_humidity;BME280_pressure;Samples;Min_cycle;Max_cycle;Signal;HPM_P1;HPM_P2
2023/01/17 00:00:36;;;;;;;1.90;1.00;;;3.30;99.90;;;;;;4920423;29;20232;-81
2023/01/17 00:03:03;;;;;;;2.00;0.90;;;3.30;99.90;;;;;;4943854;28;20336;-81
2023/01/17 00:10:59;;;;;;;2.00;1.10;;;3.30;99.90;;;;;;4943991;28;20235;-80
2023/01/17 00:13:26;;;;;;;1.60;1.03;;;3.30;99.90;;;;;;4940796;28;20338;-80
2023/01/17 00:15:53;;;;;;;1.97;1.03;;;3.30;99.90;;;;;;4943235;28;20782;-80
2023/01/17 00:18:20;;;;;;;1.87;1.00;;;3.30;99.90;;;;;;4942533;28;20318;-80
2023/01/17 00:26:19;;;;;;;2.73;1.30;;;3.10;99.90;;;;;;4924383;29;20219;-82
2023/01/17 01:35:46;;;;;;;2.73;1.60;;;2.70;99.90;;;;;;4954404;28;20700;-81
2023/01/17 01:38:13;;;;;;;4.10;1.37;;;2.70;99.90;;;;;;4931451;28;20310;-81
2023/01/17 01:40:47;;;;;;;3.30;1.20;;;2.70;99.90;;;;;;4939296;28;20278;-81
2023/01/17 01:43:15;;;;;;;1.50;1.10;;;2.60;99.90;;;;;;4930466;28;21681;-82
2023/01/17 01:45:46;;;;;;;2.40;1.40;;;2.80;99.90;;;;;;4947177;28;20318;-81
2023/01/17 01:48:32;;;;;;;1.50;1.10;;;2.80;99.90;;;;;;4941538;28;20241;-81
2023/01/17 01:51:01;;;;;;;3.87;1.40;;;2.80;99.90;;;;;;4929552;29;20228;-81
2023/01/17 01:53:31;;;;;;;3.37;1.40;;;2.80;99.90;;;;;;4956332;28;20312;-80
2023/01/17 01:55:59;;;;;;;4.43;1.37;;;2.80;99.90;;;;;;4936761;28;20314;-81
2023/01/17 01:58:31;;;;;;;2.80;1.40;;;2.80;99.90;;;;;;4941091;28;20251;-81
2023/01/17 02:00:58;;;;;;;1.70;1.40;;;2.80;99.90;;;;;;4948246;28;20668;-81
2023/01/17 02:03:29;;;;;;;2.97;1.50;;;2.80;99.90;;;;;;4950549;28;20255;-81
2023/01/17 02:05:59;;;;;;;2.33;1.40;;;2.90;99.90;;;;;;4936982;28;20748;-81
2023/01/17 02:08:28;;;;;;;1.47;1.30;;;2.90;99.90;;;;;;4936953;28;20232;-81
2023/01/17 02:10:56;;;;;;;2.03;1.33;;;2.90;99.90;;;;;;4933786;28;20246;-81
2023/01/17 02:13:24;;;;;;;2.50;1.57;;;2.90;99.90;;;;;;4943452;28;21401;-81
2023/01/17 02:16:01;;;;;;;1.77;1.40;;;2.80;99.90;;;;;;4950710;28;20729;-81
2023/01/17 02:18:40;;;;;;;2.47;1.70;;;2.90;99.90;;;;;;4937665;28;20242;-81
2023/01/17 02:21:21;;;;;;;1.77;1.43;;;2.90;99.90;;;;;;4932355;28;20317;-81
2023/01/17 02:24:25;;;;;;;2.80;1.80;;;2.90;99.90;;;;;;4931255;28;20265;-81
2023/01/17 02:27:01;;;;;;;1.60;1.40;;;2.90;99.90;;;;;;4929958;28;20317;-81
2023/01/17 02:30:20;;;;;;;3.30;1.63;;;2.90;99.90;;;;;;4945373;28;20293;-81
2023/01/17 02:33:09;;;;;;;3.97;2.30;;;2.90;99.90;;;;;;4947586;28;20231;-81
2023/01/17 02:35:45;;;;;;;7.27;2.53;;;2.90;99.90;;;;;;4922563;28;20220;-81
2023/01/17 02:38:19;;;;;;;2.60;2.13;;;2.90;99.90;;;;;;4947500;28;20227;-81
2023/01/17 02:40:49;;;;;;;2.50;2.10;;;2.90;99.90;;;;;;4948171;28;20234;-82
2023/01/17 02:43:19;;;;;;;4.93;2.50;;;2.90;99.90;;;;;;4950227;28;20227;-81
2023/01/17 02:45:46;;;;;;;3.10;2.80;;;2.90;99.90;;;;;;4945157;28;20885;-81
2023/01/17 02:48:18;;;;;;;3.67;2.80;;;2.90;99.90;;;;;;4948502;28;20221;-81
2023/01/17 02:51:16;;;;;;;3.67;3.00;;;2.90;99.90;;;;;;4945315;28;20677;-81
2023/01/17 02:54:03;;;;;;;4.63;3.03;;;2.90;99.90;;;;;;4909561;29;20374;-81
2023/01/17 02:56:42;;;;;;;3.10;2.90;;;2.90;99.90;;;;;;4928595;28;20242;-81
2023/01/17 02:59:20;;;;;;;3.57;3.07;;;3.00;99.90;;;;;;4946624;28;20218;-81
2023/01/17 03:01:58;;;;;;;5.33;2.97;;;3.00;99.90;;;;;;4937841;28;20247;-81
2023/01/17 03:04:34;;;;;;;3.30;2.93;;;3.00;99.90;;;;;;4932051;28;20785;-81
2023/01/17 03:07:04;;;;;;;3.50;3.20;;;3.00;99.90;;;;;;4927967;28;20223;-81
2023/01/17 03:09:32;;;;;;;3.70;3.30;;;3.00;99.90;;;;;;4926597;29;20235;-81
2023/01/17 03:11:59;;;;;;;3.57;3.27;;;3.00;99.90;;;;;;4931551;29;20220;-81
2023/01/17 03:14:26;;;;;;;3.83;3.43;;;3.00;99.90;;;;;;4933179;28;20238;-81
2023/01/17 03:16:53;;;;;;;7.67;3.83;;;3.00;99.90;;;;;;4943995;28;20238;-81
2023/01/17 03:19:20;;;;;;;4.33;3.90;;;3.00;99.90;;;;;;4928638;29;20230;-81
2023/01/17 03:21:48;;;;;;;4.17;3.73;;;3.00;99.90;;;;;;4928143;29;20798;-81
2023/01/17 03:24:17;;;;;;;11.10;4.43;;;3.00;99.90;;;;;;4930715;28;20230;-81
2023/01/17 03:26:46;;;;;;;4.87;3.90;;;3.00;99.90;;;;;;4945953;28;20988;-81
2023/01/17 03:29:15;;;;;;;10.83;4.30;;;3.00;99.90;;;;;;4928548;28;20250;-81
2023/01/17 03:31:42;;;;;;;5.20;4.63;;;3.00;99.90;;;;;;4931476;28;20786;-81
2023/01/17 03:34:08;;;;;;;6.00;4.30;;;3.10;99.90;;;;;;4929779;29;20245;-82
2023/01/17 03:36:35;;;;;;;5.90;4.53;;;3.00;99.90;;;;;;4927098;28;20229;-80
2023/01/17 03:39:04;;;;;;;5.50;4.63;;;3.10;99.90;;;;;;4926909;29;20311;-81
2023/01/17 03:41:30;;;;;;;6.27;4.60;;;3.10;99.90;;;;;;4939975;28;20270;-81
2023/01/17 03:44:00;;;;;;;4.80;4.33;;;3.10;99.90;;;;;;4947431;28;20322;-81
2023/01/17 03:46:28;;;;;;;8.60;5.30;;;3.10;99.90;;;;;;4942634;28;20342;-81
2023/01/17 03:48:55;;;;;;;8.40;5.20;;;3.10;99.90;;;;;;4946015;28;20293;-81
2023/01/17 03:51:22;;;;;;;7.43;5.57;;;3.10;99.90;;;;;;4944958;28;20305;-82
2023/01/17 03:53:50;;;;;;;6.37;5.63;;;3.10;99.90;;;;;;4929516;28;20229;-81
2023/01/17 03:56:19;;;;;;;8.60;6.47;;;3.20;99.90;;;;;;4926862;28;20233;-81
2023/01/17 03:58:45;;;;;;;8.73;6.87;;;3.20;99.90;;;;;;4927891;29;20220;-82
2023/01/17 04:01:13;;;;;;;25.53;7.73;;;3.20;99.90;;;;;;4925254;28;20286;-81
2023/01/17 04:03:39;;;;;;;9.53;7.93;;;3.20;99.90;;;;;;4945374;28;20827;-80
2023/01/17 04:06:06;;;;;;;8.23;6.97;;;3.20;99.90;;;;;;4929248;28;20247;-81
2023/01/17 04:08:33;;;;;;;13.33;7.07;;;3.20;99.90;;;;;;4949354;28;20223;-80
2023/01/17 04:11:00;;;;;;;7.00;6.30;;;3.30;99.90;;;;;;4931736;28;20482;-82
2023/01/17 04:13:28;;;;;;;8.50;6.73;;;3.30;99.90;;;;;;4928437;28;20590;-80
2023/01/17 04:15:55;;;;;;;7.53;6.63;;;3.20;99.90;;;;;;4933383;28;20926;-80
2023/01/17 04:18:23;;;;;;;7.03;6.03;;;3.20;99.90;;;;;;4945389;28;20224;-80
2023/01/17 04:20:53;;;;;;;7.90;6.63;;;3.20;99.90;;;;;;4945962;28;20302;-82
2023/01/17 04:23:20;;;;;;;7.70;5.90;;;3.30;99.90;;;;;;4943902;28;20701;-81
2023/01/17 04:25:47;;;;;;;6.33;5.67;;;3.30;99.90;;;;;;4943516;28;20224;-82
2023/01/17 04:28:14;;;;;;;6.10;5.40;;;3.30;99.90;;;;;;4943522;28;20230;-81
2023/01/17 04:30:42;;;;;;;5.27;4.67;;;3.30;99.90;;;;;;4928569;28;20778;-82
2023/01/17 04:33:09;;;;;;;4.00;3.60;;;3.30;99.90;;;;;;4944497;28;20223;-82
2023/01/17 04:35:36;;;;;;;4.00;3.37;;;3.20;99.90;;;;;;4932257;28;20311;-81
2023/01/17 04:38:03;;;;;;;2.70;2.50;;;3.20;99.90;;;;;;4947278;28;20646;-81
2023/01/17 04:40:29;;;;;;;4.53;3.20;;;3.20;99.90;;;;;;4948846;28;20770;-80
2023/01/17 04:42:56;;;;;;;3.40;3.00;;;3.20;99.90;;;;;;4926618;28;21885;-80
2023/01/17 04:45:23;;;;;;;4.40;3.80;;;3.20;99.90;;;;;;4926911;28;20228;-81
2023/01/17 04:47:51;;;;;;;5.47;4.97;;;3.20;99.90;;;;;;4946894;28;20232;-81
2023/01/17 04:50:18;;;;;;;5.03;4.53;;;3.20;99.90;;;;;;4928017;29;20231;-81
2023/01/17 04:52:44;;;;;;;5.10;4.23;;;3.20;99.90;;;;;;4930556;29;20226;-81
2023/01/17 04:55:11;;;;;;;4.37;3.90;;;3.10;99.90;;;;;;4933054;28;20251;-81
2023/01/17 04:57:38;;;;;;;3.90;3.50;;;3.10;99.90;;;;;;4930442;29;20232;-81
2023/01/17 05:00:06;;;;;;;4.50;3.90;;;3.10;99.90;;;;;;4935165;28;20281;-82
2023/01/17 05:02:33;;;;;;;4.60;3.67;;;3.10;99.90;;;;;;4942325;28;20316;-84
2023/01/17 05:05:01;;;;;;;4.47;3.90;;;3.00;99.90;;;;;;4949128;28;20223;-85
2023/01/17 05:07:28;;;;;;;4.67;3.70;;;3.00;99.90;;;;;;4938451;28;20238;-85
2023/01/17 05:09:55;;;;;;;44.97;6.30;;;3.00;99.90;;;;;;4932031;28;20239;-85
2023/01/17 05:12:22;;;;;;;36.07;5.60;;;2.90;99.90;;;;;;4951396;28;20220;-85
2023/01/17 05:14:49;;;;;;;17.90;4.43;;;2.90;99.90;;;;;;4948420;28;20246;-84
2023/01/17 05:17:15;;;;;;;5.63;4.00;;;2.90;99.90;;;;;;4932252;28;20223;-85
2023/01/17 05:19:42;;;;;;;68.00;7.67;;;2.90;99.90;;;;;;4930527;28;20759;-85
2023/01/17 05:22:14;;;;;;;24.90;4.83;;;2.80;99.90;;;;;;4945518;28;20301;-83
2023/01/17 05:24:42;;;;;;;16.40;5.23;;;2.90;99.90;;;;;;4947392;28;20311;-83
2023/01/17 05:27:12;;;;;;;11.27;4.30;;;2.80;99.90;;;;;;4928692;28;20224;-83
2023/01/17 05:29:40;;;;;;;33.07;6.07;;;2.80;99.90;;;;;;4949580;28;20231;-83
2023/01/17 05:32:06;;;;;;;6.87;4.10;;;2.90;99.90;;;;;;4935928;28;20250;-83
2023/01/17 05:34:33;;;;;;;118.80;10.10;;;2.90;99.90;;;;;;4947666;28;20230;-83
2023/01/17 05:37:00;;;;;;;25.90;5.93;;;2.80;99.90;;;;;;4933555;28;20700;-83
2023/01/17 05:39:29;;;;;;;26.53;6.50;;;2.80;99.90;;;;;;4947035;28;20646;-83
2023/01/17 05:41:56;;;;;;;7.57;4.60;;;2.90;99.90;;;;;;4927798;28;20219;-84
2023/01/17 05:44:23;;;;;;;24.67;5.60;;;2.90;99.90;;;;;;4946336;28;20256;-84
2023/01/17 05:46:50;;;;;;;8.83;4.90;;;2.90;99.90;;;;;;4927735;28;20307;-83
2023/01/17 05:49:16;;;;;;;5.73;4.60;;;2.90;99.90;;;;;;4934216;28;20564;-83
2023/01/17 05:51:43;;;;;;;7.80;5.00;;;2.90;99.90;;;;;;4936887;28;20620;-82
2023/01/17 05:54:10;;;;;;;5.70;4.60;;;2.90;99.90;;;;;;4946132;28;20264;-83
2023/01/17 05:56:39;;;;;;;25.30;5.77;;;3.00;99.90;;;;;;4944696;28;20664;-83
2023/01/17 05:59:06;;;;;;;5.50;3.70;;;3.00;99.90;;;;;;4945210;28;20235;-83
2023/01/17 06:01:32;;;;;;;4.43;3.33;;;3.00;99.90;;;;;;4929829;28;20242;-82
2023/01/17 06:03:59;;;;;;;5.37;3.27;;;3.00;99.90;;;;;;4945987;28;20298;-83
2023/01/17 06:06:26;;;;;;;3.13;2.83;;;3.00;99.90;;;;;;4942840;28;20239;-82
2023/01/17 06:08:53;;;;;;;2.40;2.00;;;3.00;99.90;;;;;;4946211;28;20315;-83
2023/01/17 06:11:19;;;;;;;2.33;2.00;;;3.00;99.90;;;;;;4929863;28;20222;-84
2023/01/17 06:13:48;;;;;;;3.03;1.90;;;3.00;99.90;;;;;;4948087;28;20223;-82
2023/01/17 06:16:15;;;;;;;2.00;1.00;;;3.00;99.90;;;;;;4948592;28;20228;-82
2023/01/17 06:18:42;;;;;;;2.03;0.90;;;3.00;99.90;;;;;;4945191;28;20318;-83
2023/01/17 06:21:09;;;;;;;1.47;0.80;;;2.90;99.90;;;;;;4947319;28;20290;-83
2023/01/17 06:23:35;;;;;;;2.10;0.80;;;2.90;99.90;;;;;;4944974;28;20223;-83
2023/01/17 06:26:03;;;;;;;0.60;0.60;;;2.90;99.90;;;;;;4946076;28;20256;-83
2023/01/17 06:28:31;;;;;;;1.33;0.50;;;2.90;99.90;;;;;;4951266;28;20224;-83
2023/01/17 06:30:59;;;;;;;1.23;0.47;;;2.90;99.90;;;;;;4926601;28;20991;-82
2023/01/17 06:33:26;;;;;;;1.13;0.47;;;2.80;99.90;;;;;;4946883;28;20294;-83
2023/01/17 06:35:54;;;;;;;0.57;0.40;;;2.80;99.90;;;;;;4932196;28;20318;-83
2023/01/17 06:38:21;;;;;;;1.73;0.30;;;2.80;99.90;;;;;;4947808;28;21041;-83
2023/01/17 06:40:48;;;;;;;2.23;0.40;;;2.70;99.90;;;;;;4936351;28;20364;-83
2023/01/17 06:43:15;;;;;;;1.63;0.30;;;2.70;99.90;;;;;;4931691;28;20220;-83
2023/01/17 06:45:42;;;;;;;1.03;0.40;;;2.70;99.90;;;;;;4931872;28;20258;-83
2023/01/17 06:48:10;;;;;;;3.13;0.40;;;2.60;99.90;;;;;;4945341;28;20228;-83
2023/01/17 06:50:36;;;;;;;2.10;0.40;;;2.60;99.90;;;;;;4949919;28;20303;-83
2023/01/17 06:53:05;;;;;;;1.43;0.60;;;2.60;99.90;;;;;;4947049;28;20237;-83
2023/01/17 06:55:33;;;;;;;2.23;0.30;;;2.60;99.90;;;;;;4931650;28;20275;-83
2023/01/17 06:58:01;;;;;;;2.37;0.60;;;2.50;99.90;;;;;;4929724;28;20878;-83
2023/01/17 07:00:29;;;;;;;1.10;0.50;;;2.50;99.90;;;;;;4928301;29;21021;-83
2023/01/17 07:02:56;;;;;;;2.07;0.63;;;2.50;99.90;;;;;;4923758;29;20232;-83
2023/01/17 07:05:24;;;;;;;3.77;0.80;;;2.40;99.90;;;;;;4947569;28;20260;-84
2023/01/17 07:07:50;;;;;;;5.80;0.90;;;2.40;99.90;;;;;;4948634;28;20250;-84
2023/01/17 07:10:17;;;;;;;3.90;0.80;;;2.40;99.90;;;;;;4945986;28;20267;-85
2023/01/17 07:12:44;;;;;;;3.33;0.83;;;2.40;99.90;;;;;;4942458;28;20231;-83
2023/01/17 07:15:11;;;;;;;3.43;0.70;;;2.30;99.90;;;;;;4947061;28;20409;-81
2023/01/17 07:17:38;;;;;;;3.63;0.70;;;2.30;99.90;;;;;;4927396;28;20233;-82
2023/01/17 07:20:06;;;;;;;3.20;1.00;;;2.30;99.90;;;;;;4935234;28;20233;-82
2023/01/17 07:22:36;;;;;;;2.37;0.67;;;2.30;99.90;;;;;;4946108;28;20241;-82
2023/01/17 07:25:03;;;;;;;5.03;1.00;;;2.10;99.90;;;;;;4934369;29;20818;-81
2023/01/17 07:27:30;;;;;;;4.07;0.73;;;2.20;99.90;;;;;;4948006;28;20847;-81
2023/01/17 07:29:57;;;;;;;3.33;0.80;;;2.20;99.90;;;;;;4945944;28;21600;-82
2023/01/17 07:32:25;;;;;;;2.57;0.80;;;2.20;99.90;;;;;;4946558;28;20353;-82
2023/01/17 07:34:52;;;;;;;4.00;1.00;;;2.20;99.90;;;;;;4945615;28;20227;-82
2023/01/17 07:37:19;;;;;;;4.07;0.87;;;2.20;99.90;;;;;;4944145;28;20232;-82
2023/01/17 07:39:47;;;;;;;6.13;0.97;;;2.10;99.90;;;;;;4946914;28;20235;-82
2023/01/17 07:42:13;;;;;;;4.43;1.03;;;2.20;99.90;;;;;;4925890;28;20315;-82
2023/01/17 07:44:42;;;;;;;4.20;1.03;;;2.20;99.90;;;;;;4943636;28;20239;-82
2023/01/17 07:47:12;;;;;;;4.90;1.27;;;2.20;99.90;;;;;;4944509;28;20266;-82
2023/01/17 07:49:39;;;;;;;1.87;0.83;;;2.20;99.90;;;;;;4925680;29;20266;-82
2023/01/17 07:52:06;;;;;;;5.00;0.90;;;2.20;99.90;;;;;;4934608;28;20314;-82
2023/01/17 07:54:33;;;;;;;7.73;1.03;;;2.20;99.90;;;;;;4928660;28;20227;-82
2023/01/17 07:57:01;;;;;;;5.60;1.43;;;2.20;99.90;;;;;;4946245;28;20620;-82
2023/01/17 07:59:28;;;;;;;4.37;1.07;;;2.30;99.90;;;;;;4942766;28;20708;-82
2023/01/17 08:01:55;;;;;;;6.17;1.20;;;2.30;99.90;;;;;;4928070;29;20713;-82
2023/01/17 08:04:25;;;;;;;4.83;1.30;;;2.30;99.90;;;;;;4945401;28;20235;-82
2023/01/17 08:06:53;;;;;;;5.13;1.20;;;2.30;99.90;;;;;;4946064;28;20321;-82
2023/01/17 08:09:20;;;;;;;6.37;1.10;;;2.40;99.90;;;;;;4945348;28;20235;-82
2023/01/17 08:11:47;;;;;;;5.03;1.27;;;2.40;99.90;;;;;;4946895;28;20219;-82
2023/01/17 08:14:15;;;;;;;5.60;1.50;;;2.40;99.90;;;;;;4944782;28;20250;-81
2023/01/17 08:16:41;;;;;;;9.60;1.20;;;2.40;99.90;;;;;;4937225;28;20219;-82
2023/01/17 08:19:17;;;;;;;8.27;1.47;;;2.40;99.90;;;;;;4933715;28;20226;-82
2023/01/17 08:21:44;;;;;;;8.27;1.60;;;2.40;99.90;;;;;;4929352;29;20228;-82
2023/01/17 08:24:18;;;;;;;3.77;0.90;;;2.50;99.90;;;;;;4943255;28;20745;-82
2023/01/17 08:27:00;;;;;;;6.17;1.03;;;2.50;99.90;;;;;;4943256;28;20230;-82
2023/01/17 08:29:29;;;;;;;4.17;1.30;;;2.50;99.90;;;;;;4935912;28;20318;-81
2023/01/17 08:31:55;;;;;;;4.67;0.90;;;2.40;99.90;;;;;;4943616;28;20223;-81
2023/01/17 08:34:22;;;;;;;2.50;0.83;;;2.40;99.90;;;;;;4954448;28;20231;-82
2023/01/17 08:36:51;;;;;;;4.33;0.90;;;2.40;99.90;;;;;;4946879;28;20224;-81
2023/01/17 08:39:18;;;;;;;6.53;1.27;;;2.40;99.90;;;;;;4932260;28;20322;-81
2023/01/17 08:41:45;;;;;;;3.50;1.07;;;2.40;99.90;;;;;;4947979;28;20285;-82
2023/01/17 08:44:12;;;;;;;6.30;1.23;;;2.40;99.90;;;;;;4952252;28;20233;-81
2023/01/17 08:46:42;;;;;;;4.77;1.20;;;2.40;99.90;;;;;;4944201;28;20913;-82
2023/01/17 08:49:11;;;;;;;6.47;1.17;;;2.40;99.90;;;;;;4942929;28;20223;-82
2023/01/17 08:51:37;;;;;;;5.07;1.00;;;2.60;99.90;;;;;;4926970;29;20577;-82
2023/01/17 08:54:04;;;;;;;2.90;1.20;;;2.50;99.90;;;;;;4947697;28;20231;-82
2023/01/17 08:56:31;;;;;;;3.57;0.87;;;2.50;99.90;;;;;;4929955;28;20311;-81
2023/01/17 08:58:58;;;;;;;7.17;1.10;;;2.60;99.90;;;;;;4946934;28;20219;-82
2023/01/17 09:01:25;;;;;;;4.93;1.03;;;2.60;99.90;;;;;;4944703;28;20257;-82
2023/01/17 09:03:53;;;;;;;2.20;0.83;;;2.60;99.90;;;;;;4932147;28;20338;-82
2023/01/17 09:06:20;;;;;;;6.23;1.70;;;2.60;99.90;;;;;;4949070;28;20241;-83
2023/01/17 09:08:48;;;;;;;4.57;1.20;;;2.70;99.90;;;;;;4947902;28;20326;-82
2023/01/17 09:11:16;;;;;;;5.40;1.20;;;2.70;99.90;;;;;;4953787;28;20306;-82
2023/01/17 09:13:43;;;;;;;8.73;1.70;;;2.70;99.90;;;;;;4932059;28;20304;-82
2023/01/17 09:16:10;;;;;;;11.13;1.83;;;2.70;99.90;;;;;;4933198;28;20278;-80
2023/01/17 09:18:37;;;;;;;4.83;1.30;;;2.70;99.90;;;;;;4948781;28;20234;-79
2023/01/17 09:21:16;;;;;;;4.20;1.50;;;2.70;99.90;;;;;;4932157;28;20238;-79
2023/01/17 09:23:43;;;;;;;3.47;1.20;;;2.60;99.90;;;;;;4942337;28;20240;-79
2023/01/17 09:26:22;;;;;;;4.07;1.70;;;2.60;99.90;;;;;;4931587;28;20230;-79
2023/01/17 09:28:49;;;;;;;4.50;1.20;;;2.60;99.90;;;;;;4949147;28;20224;-80
2023/01/17 09:31:16;;;;;;;6.07;1.43;;;2.70;99.90;;;;;;4948142;28;20226;-80
2023/01/17 09:33:43;;;;;;;7.03;1.40;;;2.70;99.90;;;;;;4946912;28;20318;-80
2023/01/17 09:36:10;;;;;;;4.17;1.40;;;2.90;99.90;;;;;;4946870;28;20224;-80
2023/01/17 09:38:39;;;;;;;3.70;1.13;;;3.10;99.90;;;;;;4949660;28;20226;-80
2023/01/17 09:41:20;;;;;;;5.50;1.53;;;3.30;99.90;;;;;;4944369;28;20231;-80
2023/01/17 09:43:50;;;;;;;5.33;1.40;;;3.50;99.90;;;;;;4930037;29;20233;-80
2023/01/17 09:46:22;;;;;;;8.23;1.93;;;3.60;99.90;;;;;;4933676;28;20234;-80
2023/01/17 09:48:53;;;;;;;8.00;1.77;;;3.70;99.90;;;;;;4948845;28;20310;-82
2023/01/17 09:51:23;;;;;;;4.60;1.00;;;3.70;99.90;;;;;;4941780;28;20231;-82
2023/01/17 09:53:52;;;;;;;4.27;1.10;;;3.60;99.90;;;;;;4931070;28;20882;-82
2023/01/17 09:56:26;;;;;;;5.57;0.93;;;3.60;99.90;;;;;;4928894;28;20219;-83
2023/01/17 09:59:08;;;;;;;4.60;1.40;;;3.50;99.90;;;;;;4946927;28;20226;-82
2023/01/17 10:01:41;;;;;;;4.97;1.67;;;3.40;99.90;;;;;;4919443;29;20308;-82
2023/01/17 10:04:24;;;;;;;3.03;0.80;;;3.20;99.90;;;;;;4929736;29;20231;-81
2023/01/17 10:07:04;;;;;;;4.37;1.23;;;3.10;99.90;;;;;;4950943;28;20241;-82
2023/01/17 10:10:02;;;;;;;2.63;0.90;;;3.00;99.90;;;;;;4933307;29;20223;-82
2023/01/17 10:12:35;;;;;;;3.60;0.77;;;2.90;99.90;;;;;;4938228;28;20315;-82
2023/01/17 10:15:32;;;;;;;4.77;1.20;;;2.80;99.90;;;;;;4933452;28;20629;-82
2023/01/17 10:18:16;;;;;;;4.47;0.93;;;2.70;99.90;;;;;;4946967;28;20305;-79
2023/01/17 10:20:53;;;;;;;5.43;1.17;;;2.60;99.90;;;;;;4949299;28;20245;-79
2023/01/17 10:23:43;;;;;;;5.60;1.20;;;2.60;99.90;;;;;;4930680;28;20240;-79
2023/01/17 10:26:16;;;;;;;5.57;1.30;;;2.60;99.90;;;;;;4952343;28;20655;-79
2023/01/17 10:28:47;;;;;;;3.80;1.43;;;2.60;99.90;;;;;;4948334;28;20251;-79
2023/01/17 10:31:20;;;;;;;5.70;1.17;;;2.80;99.90;;;;;;4951181;28;20231;-79
2023/01/17 10:33:56;;;;;;;4.57;1.07;;;2.90;99.90;;;;;;4948217;28;20278;-79
2023/01/17 10:36:24;;;;;;;5.23;1.03;;;3.10;99.90;;;;;;4947897;28;20226;-79
2023/01/17 10:38:53;;;;;;;3.53;1.10;;;3.40;99.90;;;;;;4928062;28;20234;-79
2023/01/17 10:41:28;;;;;;;3.77;1.17;;;3.70;99.90;;;;;;4949901;28;20320;-77
2023/01/17 10:44:06;;;;;;;8.10;1.33;;;4.10;99.90;;;;;;4946535;28;20224;-77
2023/01/17 10:46:39;;;;;;;6.03;1.27;;;4.40;99.90;;;;;;4944690;28;20735;-77
2023/01/17 10:49:15;;;;;;;8.60;1.13;;;4.60;99.90;;;;;;4926300;28;20225;-77
2023/01/17 10:51:59;;;;;;;3.43;1.03;;;4.80;99.90;;;;;;4946611;28;20221;-77
2023/01/17 10:54:50;;;;;;;5.07;1.10;;;4.90;99.90;;;;;;4929838;28;20222;-77
2023/01/17 10:57:21;;;;;;;5.63;1.13;;;5.00;99.90;;;;;;4930228;28;20223;-77
2023/01/17 10:59:47;;;;;;;5.30;1.00;;;5.00;99.90;;;;;;4945416;28;20225;-77
2023/01/17 11:02:21;;;;;;;4.87;1.30;;;5.00;99.90;;;;;;4944009;28;21760;-77
2023/01/17 11:04:53;;;;;;;3.53;0.97;;;5.00;99.90;;;;;;4932456;28;20260;-77
2023/01/17 11:07:22;;;;;;;4.10;1.23;;;5.00;99.90;;;;;;4949024;28;20225;-77
2023/01/17 11:09:52;;;;;;;4.40;1.20;;;5.00;99.90;;;;;;4950865;28;20237;-77
2023/01/17 11:12:26;;;;;;;4.97;1.03;;;5.00;99.90;;;;;;4947014;28;20235;-80
2023/01/17 11:15:24;;;;;;;2.53;0.70;;;5.00;99.90;;;;;;4950796;28;20255;-80
2023/01/17 11:18:00;;;;;;;3.53;0.90;;;4.90;99.90;;;;;;4952194;28;20229;-80
2023/01/17 11:20:33;;;;;;;2.50;0.90;;;4.90;99.90;;;;;;4951529;28;20229;-77
2023/01/17 11:23:05;;;;;;;3.97;1.00;;;4.80;99.90;;;;;;4934517;29;20248;-77
2023/01/17 11:25:36;;;;;;;7.90;1.20;;;4.80;99.90;;;;;;4948688;28;20232;-77
2023/01/17 11:28:07;;;;;;;3.83;0.93;;;4.80;99.90;;;;;;4937161;29;20235;-77
2023/01/17 11:30:36;;;;;;;5.33;0.90;;;4.70;99.90;;;;;;4938484;28;20225;-78
2023/01/17 11:33:28;;;;;;;4.40;0.90;;;4.70;99.90;;;;;;4951294;28;20229;-77
2023/01/17 11:35:55;;;;;;;5.67;1.00;;;4.60;99.90;;;;;;4934949;28;20234;-77
2023/01/17 11:38:25;;;;;;;6.27;1.33;;;4.60;99.90;;;;;;4949752;28;20228;-77
2023/01/17 11:41:17;;;;;;;4.53;1.30;;;4.50;99.90;;;;;;4938592;28;20238;-77
2023/01/17 11:43:50;;;;;;;5.20;1.33;;;4.50;99.90;;;;;;4936825;28;20240;-78
2023/01/17 11:46:19;;;;;;;3.73;0.90;;;4.50;99.90;;;;;;4939670;28;20661;-77
2023/01/17 11:48:49;;;;;;;3.07;0.80;;;4.60;99.90;;;;;;4952261;28;20225;-77
2023/01/17 11:51:28;;;;;;;3.13;0.90;;;4.60;99.90;;;;;;4949396;28;20224;-77
2023/01/17 11:54:04;;;;;;;3.40;0.97;;;4.60;99.90;;;;;;4931254;28;20264;-77
2023/01/17 11:56:32;;;;;;;4.20;0.83;;;4.60;99.90;;;;;;4945489;28;20333;-77
2023/01/17 11:59:21;;;;;;;3.83;0.87;;;4.50;99.90;;;;;;4948802;28;20227;-77
2023/01/17 12:02:01;;;;;;;3.90;0.90;;;4.50;99.90;;;;;;4945727;28;20256;-77
2023/01/17 12:04:34;;;;;;;5.17;0.90;;;4.40;99.90;;;;;;4930274;28;20226;-78
2023/01/17 12:07:18;;;;;;;3.43;0.77;;;4.40;99.90;;;;;;4926849;29;20245;-77
2023/01/17 12:09:50;;;;;;;3.17;0.83;;;4.40;99.90;;;;;;4944717;28;20233;-77
2023/01/17 12:15:33;;;;;;;3.43;0.83;;;4.40;99.90;;;;;;4947878;28;20838;-77
2023/01/17 12:18:19;;;;;;;5.30;0.93;;;4.40;99.90;;;;;;4942352;28;20730;-77
2023/01/17 12:20:54;;;;;;;2.30;0.80;;;4.40;99.90;;;;;;4936791;28;20232;-77
2023/01/17 12:23:40;;;;;;;1.83;0.70;;;4.40;99.90;;;;;;4932870;28;20949;-77
2023/01/17 12:26:20;;;;;;;2.97;1.00;;;4.40;99.90;;;;;;4941523;28;20221;-77
2023/01/17 12:29:22;;;;;;;3.23;0.80;;;4.50;99.90;;;;;;4933937;28;20236;-77
2023/01/17 12:32:00;;;;;;;1.80;0.80;;;4.50;99.90;;;;;;4924880;29;20738;-77
2023/01/17 12:34:31;;;;;;;2.60;0.83;;;4.50;99.90;;;;;;4934089;28;20328;-78
2023/01/17 12:37:02;;;;;;;4.50;1.27;;;4.50;99.90;;;;;;4947162;28;20281;-78
2023/01/17 12:39:35;;;;;;;3.80;0.70;;;4.40;99.90;;;;;;4929978;29;20233;-78
2023/01/17 12:42:08;;;;;;;4.93;1.13;;;4.40;99.90;;;;;;4943815;28;20228;-77
2023/01/17 12:44:52;;;;;;;3.40;1.00;;;4.30;99.90;;;;;;4940353;28;20253;-78
2023/01/17 12:47:21;;;;;;;4.57;0.80;;;4.30;99.90;;;;;;4933303;28;20835;-77
2023/01/17 12:49:57;;;;;;;2.17;0.80;;;4.30;99.90;;;;;;4944660;28;20237;-77
2023/01/17 12:52:47;;;;;;;3.50;1.17;;;4.30;99.90;;;;;;4941536;28;20315;-77
2023/01/17 12:55:19;;;;;;;4.13;0.93;;;4.30;99.90;;;;;;4950620;28;20224;-77
2023/01/17 12:57:51;;;;;;;5.73;1.17;;;4.20;99.90;;;;;;4952056;28;20230;-77
2023/01/17 13:00:24;;;;;;;2.73;1.00;;;4.20;99.90;;;;;;4953304;28;20231;-78
2023/01/17 13:02:59;;;;;;;2.50;0.67;;;4.10;99.90;;;;;;4944556;28;20259;-77
2023/01/17 13:05:32;;;;;;;3.53;1.20;;;4.10;99.90;;;;;;4937119;28;20265;-77
2023/01/17 13:08:09;;;;;;;1.37;0.77;;;4.10;99.90;;;;;;4941494;28;20226;-77
2023/01/17 13:10:42;;;;;;;2.37;0.80;;;4.00;99.90;;;;;;4945072;28;20242;-77
2023/01/17 13:13:19;;;;;;;5.20;0.83;;;4.00;99.90;;;;;;4942163;28;20648;-78
2023/01/17 13:15:48;;;;;;;2.17;0.73;;;4.00;99.90;;;;;;4935489;28;20239;-77
2023/01/17 13:18:21;;;;;;;2.23;0.73;;;4.00;99.90;;;;;;4935744;28;20312;-77
2023/01/17 13:21:28;;;;;;;4.30;0.60;;;4.00;99.90;;;;;;4948562;28;20649;-77
2023/01/17 13:24:20;;;;;;;3.17;0.60;;;4.00;99.90;;;;;;4936812;28;20312;-77
2023/01/17 13:27:26;;;;;;;3.50;1.00;;;4.00;99.90;;;;;;4946961;28;20640;-77
2023/01/17 13:30:04;;;;;;;7.47;1.00;;;3.90;99.90;;;;;;4946927;28;20645;-77
2023/01/17 13:32:52;;;;;;;2.70;0.90;;;3.90;99.90;;;;;;4953228;28;20243;-77
2023/01/17 13:35:40;;;;;;;2.03;0.60;;;3.90;99.90;;;;;;4926351;29;20325;-77
2023/01/17 13:38:28;;;;;;;4.57;1.07;;;3.90;99.90;;;;;;4946765;28;20651;-77
2023/01/17 13:41:00;;;;;;;1.33;0.60;;;3.90;99.90;;;;;;4946492;28;20228;-77
2023/01/17 13:43:30;;;;;;;3.90;0.93;;;3.90;99.90;;;;;;4945676;28;20323;-77
2023/01/17 13:45:59;;;;;;;1.03;0.63;;;3.90;99.90;;;;;;4937905;28;20228;-77
2023/01/17 13:48:32;;;;;;;4.33;0.70;;;3.90;99.90;;;;;;4945690;28;20255;-77
2023/01/17 13:51:02;;;;;;;3.67;1.10;;;3.90;99.90;;;;;;4921382;29;20900;-76
2023/01/17 13:53:58;;;;;;;1.60;0.53;;;3.90;99.90;;;;;;4946030;28;20227;-77
2023/01/17 13:56:28;;;;;;;3.70;0.70;;;3.90;99.90;;;;;;4929379;28;20231;-77
2023/01/17 13:59:25;;;;;;;3.00;0.70;;;3.80;99.90;;;;;;4928001;28;20788;-77
2023/01/17 14:01:53;;;;;;;4.40;0.93;;;3.80;99.90;;;;;;4926008;29;20235;-77
2023/01/17 14:04:22;;;;;;;4.60;0.80;;;3.70;99.90;;;;;;4944372;28;20922;-77
2023/01/17 14:06:59;;;;;;;2.57;0.67;;;3.70;99.90;;;;;;4944670;28;20224;-77
2023/01/17 14:09:40;;;;;;;3.03;1.13;;;3.60;99.90;;;;;;4929028;28;20350;-77
2023/01/17 14:12:25;;;;;;;3.10;0.80;;;3.60;99.90;;;;;;4953038;28;20228;-77
2023/01/17 14:14:55;;;;;;;2.27;0.80;;;3.50;99.90;;;;;;4946570;28;20256;-77
2023/01/17 14:17:49;;;;;;;1.70;0.90;;;3.50;99.90;;;;;;4937694;28;20726;-77
2023/01/17 14:20:42;;;;;;;2.87;0.70;;;3.50;99.90;;;;;;4925148;29;20858;-77
2023/01/17 14:23:29;;;;;;;2.93;0.90;;;3.50;99.90;;;;;;4934927;28;20251;-77
2023/01/17 14:26:00;;;;;;;1.80;0.70;;;3.50;99.90;;;;;;4945137;28;20312;-77
2023/01/17 14:28:30;;;;;;;3.43;0.83;;;3.50;99.90;;;;;;4924923;28;20228;-77
2023/01/17 14:31:02;;;;;;;2.53;0.90;;;3.50;99.90;;;;;;4945129;28;20228;-76
2023/01/17 14:33:30;;;;;;;6.07;1.30;;;3.50;99.90;;;;;;4943515;28;21099;-77
2023/01/17 14:36:03;;;;;;;5.10;1.30;;;3.50;99.90;;;;;;4940317;28;20232;-77
2023/01/17 14:38:33;;;;;;;4.60;0.93;;;3.60;99.90;;;;;;4940757;28;20637;-77
2023/01/17 14:41:06;;;;;;;6.87;1.50;;;3.60;99.90;;;;;;4926474;29;20224;-77